Decoded METAR Reports


Created by using MetarWeather

Station Name Location Elevation Time Temperature Dew Point RH Heat Index Wind Visibility Pressure Sky Condition Weather Remarks METAR
Alexandroupolis  40.85N 25.92E  3m  29/11/2014 09:20:00  11.0C  9.0C  87%  N/A    2500m  1023.0 mb  Scattered clouds at 300m
Broken clouds at 760m
 
Mist
 
   LGAL 290720Z /////KT 2500 BR SCT010 BKN025 11/09 Q1023 
Andravida (Civ/A  37.92N 21.27E  12m  29/11/2014 09:20:00  14.0C  12.0C  88%  N/A  Calm  > 10000m  1023.0 mb  Scattered clouds at 610m
Broken clouds at 2400m
Broken clouds at 5500m
 
      LGAD 290720Z 00000KT 9999 SCT020 BKN080 BKN180 14/12 Q1023 
Araxos (Civ/Afb)  38.17N 21.42E  15m  29/11/2014 09:20:00  17.0C  15.0C  88%  N/A  15 km/h, E (80 degrees)  > 10000m  1023.0 mb  Few clouds at 760m
Broken clouds at 2400m
 
      LGRX 290720Z 08008KT 9999 FEW025 BKN080 17/15 Q1023 
Athens/Elef-Ven  37.93N 23.95E  94m  29/11/2014 09:20:00  15.0C  12.0C  82%  N/A  2 km/h, Variable  > 10000m  1025.1 mb  Few clouds at 430m
Scattered clouds at 610m
 
      LGAV 290720Z VRB01KT 9999 FEW014 SCT020 15/12 Q1025 NOSIG 
Chios Airport  38.32N 26.12E  4m  29/11/2014 08:50:00  11.0C  10.0C  94%  N/A  Calm  > 10000m  1025.1 mb  Few clouds at 760m
Broken clouds at 2400m
 
      LGHI 290650Z 00000KT 9999 FEW025 BKN080 11/10 Q1025 
Elefsis (Hel-Afb  38.07N 23.55E  31m  29/11/2014 09:20:00  16.0C  13.0C  82%  N/A  Calm  9000m  1025.1 mb  Few clouds at 460m
Broken clouds at 760m
Broken clouds at 2100m
 
      LGEL 290720Z 00000KT 9000 FEW015 BKN025 BKN070 16/13 Q1025 
Ioannis Kapodist  39.60N 19.92E  2m  29/11/2014 09:20:00  19.0C  15.0C  78%  N/A  22 km/h, SE (130 degrees)  > 10000m  1021.0 mb  Scattered clouds at 1100m
 
Light Rain
 
   LGKR 290720Z 13012KT 9999 -RA SCT035 19/15 Q1021 NOSIG 
Iraklion (Civ/Af  35.32N 25.17E  39m  29/11/2014 09:20:00  18.0C  14.0C  77%  N/A  7 km/h, S (190 degrees)  > 10000m  1024.0 mb  Few clouds at 760m
Scattered clouds at 5500m
 
      LGIR 290720Z 19004KT 9999 FEW025 SCT180 18/14 Q1024 NOSIG 
Kalamata (Hel-Af  37.07N 22.02E  8m  29/11/2014 09:20:00  14.0C  12.0C  88%  N/A  Calm  > 10000m  1024.0 mb  Few clouds at 910m
Scattered clouds at 2400m
 
      LGKL 290720Z 00000KT 9999 FEW030 SCT080 14/12 Q1024 
Karpathos  35.42N 27.15E  20m  29/11/2014 08:50:00  18.0C  14.0C  77%  N/A  4 km/h, W (280 degrees)  > 10000m  1025.1 mb  Few clouds at 610m
 
      LGKP 290650Z 28002KT 9999 FEW020 18/14 Q1025 
Kavala/Chrisoupo  40.92N 24.62E  5m  29/11/2014 09:20:00  10.0C  10.0C  100%  N/A  7 km/h, NNE (20 degrees)  7000m  1023.0 mb  Few clouds at 240m
Overcast at 910m
 
      LGKV 290720Z 02004KT 7000 FEW008 OVC030 10/10 Q1023 
Kefallinia  38.12N 20.50E  18m  29/11/2014 08:50:00  19.0C  14.0C  73%  N/A  19 km/h, E (100 degrees)  > 10000m  1022.0 mb  Few clouds at 370m
Scattered clouds at 490m
Broken clouds at 2400m
 
      LGKF 290650Z 10010KT 9999 FEW012 SCT016 BKN080 19/14 Q1022 
Kos Airport  36.80N 27.08E  130m  29/11/2014 09:20:00  14.0C  11.0C  82%  N/A  9 km/h, N (360 degrees)  > 10000m  1024.0 mb  Few clouds at 760m
 
      LGKO 290720Z 36005KT 9999 FEW025 14/11 Q1024 
Kozani (Civ/Army  40.28N 21.85E  630m  29/11/2014 08:50:00  7.0C  6.0C  93%  N/A  Calm  1500m  1023.0 mb  Scattered clouds at 60m
Broken clouds at 550m
Overcast at 2100m
 
Mist
 
   LGKZ 290650Z 00000KT 1500 BR SCT002 BKN018 OVC070 07/06 Q1023 
Limnos Island Ar  39.92N 25.23E  5m  29/11/2014 09:20:00  14.0C  12.0C  88%  N/A  Calm  > 10000m  1024.0 mb  Few clouds at 300m
Broken clouds at 490m
Overcast at 2100m
 
      LGLM 290720Z 00000KT 9999 FEW010 BKN016 OVC070 14/12 Q1024 
Mikonos Island  37.43N 25.35E  120m  29/11/2014 09:20:00  15.0C  13.0C  88%  N/A  11 km/h, SE (130 degrees)  9000m  1025.1 mb  Scattered clouds at 610m
 
      LGMK 290720Z 13006KT 9000 SCT020 15/13 Q1025 
Mitilini  39.05N 26.60E  17m  29/11/2014 09:20:00  14.0C  8.0C  67%  N/A  Calm  > 10000m  1026.1 mb  Few clouds at 760m
Scattered clouds at 4900m
 
      LGMT 290720Z 00000KT 9999 FEW025 SCT160 14/08 Q1026 
Paros  37.00N 25.07E  36m  29/11/2014 08:50:00  17.0C  15.0C  88%  N/A  13 km/h, SE (130 degrees)  > 10000m  1025.1 mb  Few clouds at 460m
Scattered clouds at 5500m
 
      LGPA 290650Z 13007KT 9999 FEW015 SCT180 17/15 Q1025 
Preveza/Aktion  38.62N 20.77E  4m  29/11/2014 09:20:00  17.0C  12.0C  72%  N/A  7 km/h, SSE (150 degrees)  > 10000m  1023.0 mb  Scattered clouds at 550m
Broken clouds at 2400m
Broken clouds at 5500m
 
Drizzle
 
   LGPZ 290720Z 15004KT 9999 DZ SCT018 BKN080 BKN180 17/12 Q1023 
Rhodes/Diagoras  36.40N 28.08E  5m  29/11/2014 09:20:00  16.0C  13.0C  82%  N/A  13 km/h, W (280 degrees)  > 10000m  1024.0 mb  Few clouds at 550m
 
      LGRP 290720Z 28007KT 9999 FEW018 16/13 Q1024 NOSIG 
Samos Airport  37.68N 26.92E  6m  29/11/2014 09:20:00  13.0C  9.0C  77%  N/A  Calm  > 10000m  1026.1 mb  Few clouds at 610m
Scattered clouds at 3000m
 
      LGSM 290720Z 00000KT 9999 FEW020 SCT100 13/09 Q1026 
Santorini Island  36.40N 25.48E  40m  29/11/2014 08:50:00  18.0C  15.0C  83%  N/A  9 km/h, ESE (110 degrees)  > 10000m  1025.1 mb  Scattered clouds at 610m
 
      LGSR 290650Z 11005KT 9999 SCT020 18/15 Q1025 
Skiathos Island  39.18N 23.50E  15m  29/11/2014 08:50:00  13.0C  12.0C  94%  N/A  Calm  > 10000m  1023.0 mb  Few clouds at 460m
Broken clouds at 760m
Overcast at 2100m
 
      LGSK 290650Z 00000KT 9999 FEW015 BKN025 OVC070 13/12 Q1023 
Souda/Khania (Af  35.47N 24.12E  150m  29/11/2014 09:20:00  17.0C  14.0C  83%  N/A  Calm  > 10000m  1024.0 mb  Few clouds at 610m
Scattered clouds at 5500m
 
      LGSA 290720Z 00000KT 9999 FEW020 SCT180 17/14 Q1024 
Syros  37.42N 24.95E  72m  29/11/2014 09:20:00  17.0C  15.0C  88%  N/A  11 km/h, S (180 degrees)  > 10000m  1024.0 mb  Scattered clouds at 430m
 
      LGSO 290720Z 18006KT 9999 SCT014 17/15 Q1024 
Thessaloniki/Mik  40.52N 22.97E  7m  29/11/2014 09:20:00  12.0C  11.0C  94%  N/A  4 km/h, Variable  3000m  1024.0 mb  Scattered clouds at 150m
Broken clouds at 760m
Overcast at 1800m
 
Mist
 
   LGTS 290720Z VRB02KT 3000 BR SCT005 BKN025 OVC060 12/11 Q1024 NOSIG 
Zakinthos Airpor  37.75N 20.87E  3m  29/11/2014 08:50:00  19.0C  16.0C  83%  N/A  26 km/h, SSE (160 degrees)  > 10000m  1022.0 mb  Few clouds at 370m
Scattered clouds at 550m
Broken clouds at 2400m
 
      LGZA 290650Z 16014KT 9999 FEW012 SCT018 BKN080 19/16 Q1022